sensor_id;sensor_type;location;lat;lon;timestamp;P1;durP1;ratioP1;P2;durP2;ratioP2
26337;SDS011;14050;50.950;4.460;2023-06-10T00:02:17;10.27;;;5.50;;
26337;SDS011;14050;50.950;4.460;2023-06-10T00:07:17;8.23;;;5.13;;
26337;SDS011;14050;50.950;4.460;2023-06-10T00:12:17;11.18;;;5.47;;
26337;SDS011;14050;50.950;4.460;2023-06-10T00:17:18;10.10;;;5.37;;
26337;SDS011;14050;50.950;4.460;2023-06-10T00:22:18;8.40;;;5.55;;
26337;SDS011;14050;50.950;4.460;2023-06-10T00:27:18;7.30;;;5.70;;
26337;SDS011;14050;50.950;4.460;2023-06-10T00:32:19;7.25;;;5.50;;
26337;SDS011;14050;50.950;4.460;2023-06-10T00:37:19;12.98;;;5.70;;
26337;SDS011;14050;50.950;4.460;2023-06-10T00:42:19;9.50;;;5.50;;
26337;SDS011;14050;50.950;4.460;2023-06-10T00:47:19;13.13;;;6.05;;
26337;SDS011;14050;50.950;4.460;2023-06-10T00:52:20;6.40;;;5.57;;
26337;SDS011;14050;50.950;4.460;2023-06-10T00:57:22;12.43;;;5.57;;
26337;SDS011;14050;50.950;4.460;2023-06-10T01:02:22;7.70;;;5.90;;
26337;SDS011;14050;50.950;4.460;2023-06-10T01:07:27;8.55;;;6.45;;
26337;SDS011;14050;50.950;4.460;2023-06-10T01:12:43;9.32;;;6.18;;
26337;SDS011;14050;50.950;4.460;2023-06-10T01:17:55;12.15;;;6.28;;
26337;SDS011;14050;50.950;4.460;2023-06-10T01:22:58;12.60;;;6.60;;
26337;SDS011;14050;50.950;4.460;2023-06-10T01:33:07;13.57;;;6.70;;
26337;SDS011;14050;50.950;4.460;2023-06-10T01:38:09;8.95;;;6.28;;
26337;SDS011;14050;50.950;4.460;2023-06-10T01:43:10;16.38;;;6.60;;
26337;SDS011;14050;50.950;4.460;2023-06-10T01:48:10;11.00;;;6.90;;
26337;SDS011;14050;50.950;4.460;2023-06-10T01:53:11;13.95;;;6.90;;
26337;SDS011;14050;50.950;4.460;2023-06-10T01:58:11;8.43;;;6.40;;
26337;SDS011;14050;50.950;4.460;2023-06-10T02:03:11;13.15;;;6.22;;
26337;SDS011;14050;50.950;4.460;2023-06-10T02:08:12;7.93;;;6.50;;
26337;SDS011;14050;50.950;4.460;2023-06-10T02:13:12;11.45;;;7.57;;
26337;SDS011;14050;50.950;4.460;2023-06-10T02:18:12;10.70;;;7.00;;
26337;SDS011;14050;50.950;4.460;2023-06-10T02:23:13;10.40;;;7.35;;
26337;SDS011;14050;50.950;4.460;2023-06-10T02:28:13;11.38;;;7.47;;
26337;SDS011;14050;50.950;4.460;2023-06-10T02:33:13;12.80;;;7.30;;
26337;SDS011;14050;50.950;4.460;2023-06-10T02:38:14;11.80;;;7.50;;
26337;SDS011;14050;50.950;4.460;2023-06-10T02:43:15;10.15;;;7.65;;
26337;SDS011;14050;50.950;4.460;2023-06-10T02:48:15;10.30;;;7.57;;
26337;SDS011;14050;50.950;4.460;2023-06-10T02:53:16;11.18;;;8.32;;
26337;SDS011;14050;50.950;4.460;2023-06-10T02:58:16;11.68;;;7.70;;
26337;SDS011;14050;50.950;4.460;2023-06-10T03:03:16;10.10;;;8.07;;
26337;SDS011;14050;50.950;4.460;2023-06-10T03:08:17;12.90;;;8.70;;
26337;SDS011;14050;50.950;4.460;2023-06-10T03:13:17;10.20;;;8.13;;
26337;SDS011;14050;50.950;4.460;2023-06-10T03:18:17;13.18;;;8.13;;
26337;SDS011;14050;50.950;4.460;2023-06-10T03:23:17;11.50;;;8.27;;
26337;SDS011;14050;50.950;4.460;2023-06-10T03:28:18;12.50;;;8.25;;
26337;SDS011;14050;50.950;4.460;2023-06-10T03:33:18;14.88;;;8.48;;
26337;SDS011;14050;50.950;4.460;2023-06-10T03:38:19;12.90;;;9.17;;
26337;SDS011;14050;50.950;4.460;2023-06-10T03:43:19;12.77;;;9.23;;
26337;SDS011;14050;50.950;4.460;2023-06-10T03:48:20;12.18;;;8.95;;
26337;SDS011;14050;50.950;4.460;2023-06-10T03:53:20;13.77;;;9.07;;
26337;SDS011;14050;50.950;4.460;2023-06-10T03:58:21;18.40;;;8.83;;
26337;SDS011;14050;50.950;4.460;2023-06-10T04:03:21;17.47;;;8.60;;
26337;SDS011;14050;50.950;4.460;2023-06-10T04:08:22;12.43;;;8.73;;
26337;SDS011;14050;50.950;4.460;2023-06-10T04:13:23;14.82;;;8.70;;
26337;SDS011;14050;50.950;4.460;2023-06-10T04:18:23;12.95;;;9.73;;
26337;SDS011;14050;50.950;4.460;2023-06-10T04:23:24;16.02;;;9.70;;
26337;SDS011;14050;50.950;4.460;2023-06-10T04:28:24;15.30;;;10.18;;
26337;SDS011;14050;50.950;4.460;2023-06-10T04:33:25;13.17;;;10.10;;
26337;SDS011;14050;50.950;4.460;2023-06-10T04:38:25;12.40;;;9.27;;
26337;SDS011;14050;50.950;4.460;2023-06-10T04:43:26;12.98;;;10.55;;
26337;SDS011;14050;50.950;4.460;2023-06-10T04:48:28;12.63;;;9.73;;
26337;SDS011;14050;50.950;4.460;2023-06-10T04:53:28;15.23;;;9.90;;
26337;SDS011;14050;50.950;4.460;2023-06-10T04:58:29;11.48;;;9.13;;
26337;SDS011;14050;50.950;4.460;2023-06-10T05:03:29;13.68;;;9.18;;
26337;SDS011;14050;50.950;4.460;2023-06-10T05:08:29;12.20;;;10.40;;
26337;SDS011;14050;50.950;4.460;2023-06-10T05:13:30;14.75;;;9.90;;
26337;SDS011;14050;50.950;4.460;2023-06-10T05:18:30;14.40;;;9.98;;
26337;SDS011;14050;50.950;4.460;2023-06-10T05:23:31;12.73;;;9.65;;
26337;SDS011;14050;50.950;4.460;2023-06-10T05:28:32;15.05;;;9.88;;
26337;SDS011;14050;50.950;4.460;2023-06-10T05:33:33;12.15;;;9.55;;
26337;SDS011;14050;50.950;4.460;2023-06-10T05:38:34;14.20;;;9.65;;
26337;SDS011;14050;50.950;4.460;2023-06-10T05:43:34;13.17;;;10.10;;
26337;SDS011;14050;50.950;4.460;2023-06-10T05:48:35;14.98;;;9.07;;
26337;SDS011;14050;50.950;4.460;2023-06-10T05:53:35;17.45;;;9.98;;
26337;SDS011;14050;50.950;4.460;2023-06-10T05:58:36;15.82;;;10.07;;
26337;SDS011;14050;50.950;4.460;2023-06-10T06:03:36;15.70;;;10.00;;
26337;SDS011;14050;50.950;4.460;2023-06-10T06:08:37;13.50;;;9.90;;
26337;SDS011;14050;50.950;4.460;2023-06-10T06:13:37;12.35;;;9.18;;
26337;SDS011;14050;50.950;4.460;2023-06-10T06:18:37;11.00;;;8.88;;
26337;SDS011;14050;50.950;4.460;2023-06-10T06:23:37;11.13;;;9.10;;
26337;SDS011;14050;50.950;4.460;2023-06-10T06:28:38;13.18;;;8.55;;
26337;SDS011;14050;50.950;4.460;2023-06-10T06:33:38;15.82;;;8.75;;
26337;SDS011;14050;50.950;4.460;2023-06-10T06:38:38;16.13;;;8.50;;
26337;SDS011;14050;50.950;4.460;2023-06-10T06:43:38;14.40;;;8.13;;
26337;SDS011;14050;50.950;4.460;2023-06-10T06:48:39;12.23;;;8.90;;
26337;SDS011;14050;50.950;4.460;2023-06-10T06:53:39;10.75;;;7.95;;
26337;SDS011;14050;50.950;4.460;2023-06-10T06:58:44;14.27;;;7.72;;
26337;SDS011;14050;50.950;4.460;2023-06-10T07:03:44;16.20;;;8.90;;
26337;SDS011;14050;50.950;4.460;2023-06-10T07:08:45;9.33;;;7.80;;
26337;SDS011;14050;50.950;4.460;2023-06-10T07:13:45;10.17;;;7.70;;
26337;SDS011;14050;50.950;4.460;2023-06-10T07:18:45;12.48;;;7.70;;
26337;SDS011;14050;50.950;4.460;2023-06-10T07:23:46;15.90;;;7.97;;
26337;SDS011;14050;50.950;4.460;2023-06-10T07:28:46;13.95;;;7.30;;
26337;SDS011;14050;50.950;4.460;2023-06-10T07:33:46;15.05;;;6.90;;
26337;SDS011;14050;50.950;4.460;2023-06-10T07:38:47;13.13;;;7.17;;
26337;SDS011;14050;50.950;4.460;2023-06-10T07:43:47;9.68;;;6.45;;
26337;SDS011;14050;50.950;4.460;2023-06-10T07:48:47;10.65;;;6.72;;
26337;SDS011;14050;50.950;4.460;2023-06-10T07:53:48;16.98;;;6.50;;
26337;SDS011;14050;50.950;4.460;2023-06-10T07:58:49;8.73;;;6.30;;
26337;SDS011;14050;50.950;4.460;2023-06-10T08:03:50;12.45;;;6.65;;
26337;SDS011;14050;50.950;4.460;2023-06-10T08:08:50;12.05;;;6.30;;
26337;SDS011;14050;50.950;4.460;2023-06-10T08:13:50;10.63;;;6.37;;
26337;SDS011;14050;50.950;4.460;2023-06-10T08:18:51;10.07;;;6.33;;
26337;SDS011;14050;50.950;4.460;2023-06-10T08:23:54;10.32;;;6.07;;
26337;SDS011;14050;50.950;4.460;2023-06-10T08:28:54;13.40;;;6.50;;
26337;SDS011;14050;50.950;4.460;2023-06-10T08:33:55;11.90;;;5.55;;
26337;SDS011;14050;50.950;4.460;2023-06-10T08:38:56;10.80;;;5.63;;
26337;SDS011;14050;50.950;4.460;2023-06-10T08:44:06;10.68;;;6.28;;
26337;SDS011;14050;50.950;4.460;2023-06-10T08:49:08;13.52;;;6.25;;
26337;SDS011;14050;50.950;4.460;2023-06-10T08:54:11;16.37;;;5.57;;
26337;SDS011;14050;50.950;4.460;2023-06-10T08:59:15;7.73;;;5.07;;
26337;SDS011;14050;50.950;4.460;2023-06-10T09:04:16;8.30;;;5.22;;
26337;SDS011;14050;50.950;4.460;2023-06-10T09:09:17;9.13;;;5.43;;
26337;SDS011;14050;50.950;4.460;2023-06-10T09:14:19;11.35;;;5.13;;
26337;SDS011;14050;50.950;4.460;2023-06-10T09:19:20;7.25;;;4.63;;
26337;SDS011;14050;50.950;4.460;2023-06-10T09:24:24;8.73;;;4.15;;
26337;SDS011;14050;50.950;4.460;2023-06-10T09:29:25;8.77;;;4.32;;
26337;SDS011;14050;50.950;4.460;2023-06-10T09:34:25;8.82;;;4.30;;
26337;SDS011;14050;50.950;4.460;2023-06-10T09:39:26;8.27;;;4.50;;
26337;SDS011;14050;50.950;4.460;2023-06-10T09:44:27;7.72;;;3.97;;
26337;SDS011;14050;50.950;4.460;2023-06-10T09:49:29;9.93;;;4.38;;
26337;SDS011;14050;50.950;4.460;2023-06-10T09:54:31;6.53;;;4.65;;
26337;SDS011;14050;50.950;4.460;2023-06-10T09:59:32;7.43;;;4.45;;
26337;SDS011;14050;50.950;4.460;2023-06-10T10:04:32;7.03;;;4.53;;
26337;SDS011;14050;50.950;4.460;2023-06-10T10:09:35;5.50;;;4.03;;
26337;SDS011;14050;50.950;4.460;2023-06-10T10:14:35;6.85;;;4.28;;
26337;SDS011;14050;50.950;4.460;2023-06-10T10:19:50;11.88;;;4.63;;
26337;SDS011;14050;50.950;4.460;2023-06-10T10:24:54;10.60;;;5.00;;
26337;SDS011;14050;50.950;4.460;2023-06-10T10:29:55;10.73;;;4.55;;
26337;SDS011;14050;50.950;4.460;2023-06-10T10:35:03;13.35;;;4.43;;
26337;SDS011;14050;50.950;4.460;2023-06-10T10:40:06;13.65;;;4.82;;
26337;SDS011;14050;50.950;4.460;2023-06-10T10:45:07;9.95;;;4.47;;
26337;SDS011;14050;50.950;4.460;2023-06-10T10:50:17;14.73;;;4.50;;
26337;SDS011;14050;50.950;4.460;2023-06-10T10:55:18;8.82;;;4.38;;
26337;SDS011;14050;50.950;4.460;2023-06-10T11:00:24;12.93;;;4.40;;
26337;SDS011;14050;50.950;4.460;2023-06-10T11:05:58;10.52;;;4.40;;
26337;SDS011;14050;50.950;4.460;2023-06-10T11:10:52;8.73;;;4.32;;
26337;SDS011;14050;50.950;4.460;2023-06-10T11:15:56;10.55;;;4.93;;
26337;SDS011;14050;50.950;4.460;2023-06-10T11:20:58;5.45;;;4.47;;
26337;SDS011;14050;50.950;4.460;2023-06-10T11:26:11;11.80;;;4.53;;
26337;SDS011;14050;50.950;4.460;2023-06-10T11:31:24;8.05;;;4.07;;
26337;SDS011;14050;50.950;4.460;2023-06-10T11:36:26;13.48;;;3.85;;
26337;SDS011;14050;50.950;4.460;2023-06-10T11:41:26;12.23;;;4.80;;
26337;SDS011;14050;50.950;4.460;2023-06-10T11:46:27;14.02;;;4.55;;
26337;SDS011;14050;50.950;4.460;2023-06-10T11:51:29;10.75;;;4.63;;
26337;SDS011;14050;50.950;4.460;2023-06-10T11:56:30;6.43;;;4.20;;
26337;SDS011;14050;50.950;4.460;2023-06-10T12:01:31;10.52;;;4.72;;
26337;SDS011;14050;50.950;4.460;2023-06-10T12:06:41;5.13;;;4.20;;
26337;SDS011;14050;50.950;4.460;2023-06-10T12:11:43;12.00;;;4.20;;
26337;SDS011;14050;50.950;4.460;2023-06-10T12:16:50;8.60;;;4.40;;
26337;SDS011;14050;50.950;4.460;2023-06-10T12:21:50;6.28;;;4.28;;
26337;SDS011;14050;50.950;4.460;2023-06-10T12:26:53;4.35;;;3.80;;
26337;SDS011;14050;50.950;4.460;2023-06-10T12:36:58;10.75;;;4.00;;
26337;SDS011;14050;50.950;4.460;2023-06-10T12:41:58;9.73;;;4.20;;
26337;SDS011;14050;50.950;4.460;2023-06-10T12:46:59;7.30;;;3.65;;
26337;SDS011;14050;50.950;4.460;2023-06-10T12:51:59;8.30;;;3.80;;
26337;SDS011;14050;50.950;4.460;2023-06-10T12:56:59;4.93;;;3.50;;
26337;SDS011;14050;50.950;4.460;2023-06-10T13:02:00;6.55;;;3.92;;
26337;SDS011;14050;50.950;4.460;2023-06-10T13:07:00;7.80;;;3.97;;
26337;SDS011;14050;50.950;4.460;2023-06-10T13:12:01;6.25;;;3.40;;
26337;SDS011;14050;50.950;4.460;2023-06-10T13:17:01;4.55;;;3.53;;
26337;SDS011;14050;50.950;4.460;2023-06-10T13:22:01;12.02;;;3.83;;
26337;SDS011;14050;50.950;4.460;2023-06-10T13:27:01;6.38;;;3.63;;
26337;SDS011;14050;50.950;4.460;2023-06-10T13:32:02;6.27;;;3.47;;
26337;SDS011;14050;50.950;4.460;2023-06-10T13:37:02;7.00;;;3.70;;
26337;SDS011;14050;50.950;4.460;2023-06-10T13:42:05;6.13;;;3.80;;
26337;SDS011;14050;50.950;4.460;2023-06-10T13:47:07;5.93;;;4.05;;
26337;SDS011;14050;50.950;4.460;2023-06-10T13:52:08;7.63;;;4.00;;
26337;SDS011;14050;50.950;4.460;2023-06-10T13:57:08;8.00;;;3.75;;
26337;SDS011;14050;50.950;4.460;2023-06-10T14:02:10;5.55;;;3.85;;
26337;SDS011;14050;50.950;4.460;2023-06-10T14:07:11;11.30;;;4.15;;
26337;SDS011;14050;50.950;4.460;2023-06-10T14:12:12;8.02;;;3.60;;
26337;SDS011;14050;50.950;4.460;2023-06-10T14:17:12;9.02;;;3.97;;
26337;SDS011;14050;50.950;4.460;2023-06-10T14:22:12;7.65;;;4.22;;
26337;SDS011;14050;50.950;4.460;2023-06-10T14:27:13;7.93;;;4.30;;
26337;SDS011;14050;50.950;4.460;2023-06-10T14:32:13;5.80;;;3.88;;
26337;SDS011;14050;50.950;4.460;2023-06-10T14:37:13;7.27;;;4.50;;
26337;SDS011;14050;50.950;4.460;2023-06-10T14:42:14;9.60;;;3.70;;
26337;SDS011;14050;50.950;4.460;2023-06-10T14:47:14;5.43;;;4.13;;
26337;SDS011;14050;50.950;4.460;2023-06-10T14:52:15;8.90;;;4.50;;
26337;SDS011;14050;50.950;4.460;2023-06-10T14:57:15;12.10;;;4.28;;
26337;SDS011;14050;50.950;4.460;2023-06-10T15:02:15;7.17;;;3.97;;
26337;SDS011;14050;50.950;4.460;2023-06-10T15:07:16;5.32;;;4.00;;
26337;SDS011;14050;50.950;4.460;2023-06-10T15:12:17;6.20;;;3.65;;
26337;SDS011;14050;50.950;4.460;2023-06-10T15:17:18;7.73;;;3.70;;
26337;SDS011;14050;50.950;4.460;2023-06-10T15:22:18;6.40;;;3.53;;
26337;SDS011;14050;50.950;4.460;2023-06-10T15:27:18;6.40;;;4.03;;
26337;SDS011;14050;50.950;4.460;2023-06-10T15:32:19;7.22;;;4.20;;
26337;SDS011;14050;50.950;4.460;2023-06-10T15:37:19;9.27;;;4.47;;
26337;SDS011;14050;50.950;4.460;2023-06-10T15:42:21;6.47;;;3.90;;
26337;SDS011;14050;50.950;4.460;2023-06-10T15:47:21;9.07;;;3.78;;
26337;SDS011;14050;50.950;4.460;2023-06-10T15:52:22;6.20;;;3.80;;
26337;SDS011;14050;50.950;4.460;2023-06-10T15:57:22;5.47;;;4.00;;
26337;SDS011;14050;50.950;4.460;2023-06-10T16:02:22;7.97;;;4.00;;
26337;SDS011;14050;50.950;4.460;2023-06-10T16:07:23;4.40;;;3.70;;
26337;SDS011;14050;50.950;4.460;2023-06-10T16:12:23;4.90;;;3.78;;
26337;SDS011;14050;50.950;4.460;2023-06-10T16:17:23;4.90;;;3.40;;
26337;SDS011;14050;50.950;4.460;2023-06-10T16:22:23;6.45;;;3.72;;
26337;SDS011;14050;50.950;4.460;2023-06-10T16:27:23;12.43;;;4.90;;
26337;SDS011;14050;50.950;4.460;2023-06-10T16:32:25;9.32;;;3.97;;
26337;SDS011;14050;50.950;4.460;2023-06-10T16:37:25;4.23;;;3.37;;
26337;SDS011;14050;50.950;4.460;2023-06-10T16:42:26;6.15;;;3.83;;
26337;SDS011;14050;50.950;4.460;2023-06-10T16:47:26;6.30;;;4.10;;
26337;SDS011;14050;50.950;4.460;2023-06-10T16:52:26;10.18;;;4.05;;
26337;SDS011;14050;50.950;4.460;2023-06-10T16:57:27;7.82;;;4.00;;
26337;SDS011;14050;50.950;4.460;2023-06-10T17:02:27;8.47;;;4.73;;
26337;SDS011;14050;50.950;4.460;2023-06-10T17:07:27;5.03;;;4.03;;
26337;SDS011;14050;50.950;4.460;2023-06-10T17:12:28;8.88;;;3.97;;
26337;SDS011;14050;50.950;4.460;2023-06-10T17:17:29;8.33;;;5.30;;
26337;SDS011;14050;50.950;4.460;2023-06-10T17:22:29;10.17;;;4.70;;
26337;SDS011;14050;50.950;4.460;2023-06-10T17:27:30;11.53;;;5.00;;
26337;SDS011;14050;50.950;4.460;2023-06-10T17:32:30;7.07;;;5.30;;
26337;SDS011;14050;50.950;4.460;2023-06-10T17:37:32;7.07;;;4.22;;
26337;SDS011;14050;50.950;4.460;2023-06-10T17:42:32;8.67;;;3.57;;
26337;SDS011;14050;50.950;4.460;2023-06-10T17:47:32;10.23;;;4.22;;
26337;SDS011;14050;50.950;4.460;2023-06-10T17:52:33;10.00;;;4.07;;
26337;SDS011;14050;50.950;4.460;2023-06-10T17:57:33;6.35;;;3.65;;
26337;SDS011;14050;50.950;4.460;2023-06-10T18:02:33;9.18;;;3.60;;
26337;SDS011;14050;50.950;4.460;2023-06-10T18:07:34;9.57;;;4.15;;
26337;SDS011;14050;50.950;4.460;2023-06-10T18:12:34;5.97;;;4.03;;
26337;SDS011;14050;50.950;4.460;2023-06-10T18:17:34;5.67;;;3.80;;
26337;SDS011;14050;50.950;4.460;2023-06-10T18:22:36;11.13;;;5.07;;
26337;SDS011;14050;50.950;4.460;2023-06-10T18:27:37;9.30;;;4.90;;
26337;SDS011;14050;50.950;4.460;2023-06-10T18:32:37;9.23;;;5.10;;
26337;SDS011;14050;50.950;4.460;2023-06-10T18:37:37;11.77;;;5.00;;
26337;SDS011;14050;50.950;4.460;2023-06-10T18:42:37;7.40;;;4.75;;
26337;SDS011;14050;50.950;4.460;2023-06-10T18:47:38;11.63;;;4.82;;
26337;SDS011;14050;50.950;4.460;2023-06-10T18:52:38;11.15;;;4.32;;
26337;SDS011;14050;50.950;4.460;2023-06-10T18:57:38;12.35;;;4.35;;
26337;SDS011;14050;50.950;4.460;2023-06-10T19:02:39;9.52;;;4.53;;
26337;SDS011;14050;50.950;4.460;2023-06-10T19:07:39;12.20;;;4.70;;
26337;SDS011;14050;50.950;4.460;2023-06-10T19:12:40;9.07;;;4.30;;
26337;SDS011;14050;50.950;4.460;2023-06-10T19:17:40;7.03;;;4.30;;
26337;SDS011;14050;50.950;4.460;2023-06-10T19:22:41;8.13;;;4.63;;
26337;SDS011;14050;50.950;4.460;2023-06-10T19:27:45;8.60;;;4.53;;
26337;SDS011;14050;50.950;4.460;2023-06-10T19:32:45;6.60;;;4.85;;
26337;SDS011;14050;50.950;4.460;2023-06-10T19:37:45;8.33;;;5.00;;
26337;SDS011;14050;50.950;4.460;2023-06-10T19:42:46;10.13;;;4.90;;
26337;SDS011;14050;50.950;4.460;2023-06-10T19:47:46;9.15;;;5.00;;
26337;SDS011;14050;50.950;4.460;2023-06-10T19:52:46;12.82;;;4.78;;
26337;SDS011;14050;50.950;4.460;2023-06-10T19:57:47;9.77;;;4.97;;
26337;SDS011;14050;50.950;4.460;2023-06-10T20:02:47;8.23;;;4.80;;
26337;SDS011;14050;50.950;4.460;2023-06-10T20:07:48;12.75;;;5.20;;
26337;SDS011;14050;50.950;4.460;2023-06-10T20:12:48;14.53;;;4.97;;
26337;SDS011;14050;50.950;4.460;2023-06-10T20:17:49;12.40;;;5.65;;
26337;SDS011;14050;50.950;4.460;2023-06-10T20:22:51;12.40;;;5.40;;
26337;SDS011;14050;50.950;4.460;2023-06-10T20:27:52;12.77;;;5.87;;
26337;SDS011;14050;50.950;4.460;2023-06-10T20:32:52;12.00;;;5.18;;
26337;SDS011;14050;50.950;4.460;2023-06-10T20:37:52;11.53;;;5.67;;
26337;SDS011;14050;50.950;4.460;2023-06-10T20:42:53;16.60;;;5.40;;
26337;SDS011;14050;50.950;4.460;2023-06-10T20:47:54;7.82;;;5.82;;
26337;SDS011;14050;50.950;4.460;2023-06-10T20:52:54;10.13;;;5.30;;
26337;SDS011;14050;50.950;4.460;2023-06-10T20:57:56;11.88;;;5.72;;
26337;SDS011;14050;50.950;4.460;2023-06-10T21:02:58;10.65;;;5.50;;
26337;SDS011;14050;50.950;4.460;2023-06-10T21:07:58;10.57;;;5.95;;
26337;SDS011;14050;50.950;4.460;2023-06-10T21:12:59;10.75;;;6.43;;
26337;SDS011;14050;50.950;4.460;2023-06-10T21:17:59;7.40;;;5.70;;
26337;SDS011;14050;50.950;4.460;2023-06-10T21:22:59;13.75;;;6.20;;
26337;SDS011;14050;50.950;4.460;2023-06-10T21:28:00;10.55;;;5.85;;
26337;SDS011;14050;50.950;4.460;2023-06-10T21:33:00;11.00;;;6.05;;
26337;SDS011;14050;50.950;4.460;2023-06-10T21:38:00;8.85;;;5.57;;
26337;SDS011;14050;50.950;4.460;2023-06-10T21:43:01;13.98;;;6.25;;
26337;SDS011;14050;50.950;4.460;2023-06-10T21:48:01;8.10;;;6.07;;
26337;SDS011;14050;50.950;4.460;2023-06-10T21:53:01;12.27;;;6.22;;
26337;SDS011;14050;50.950;4.460;2023-06-10T21:58:01;12.13;;;6.43;;
26337;SDS011;14050;50.950;4.460;2023-06-10T22:03:02;9.15;;;6.55;;
26337;SDS011;14050;50.950;4.460;2023-06-10T22:08:02;11.02;;;6.82;;
26337;SDS011;14050;50.950;4.460;2023-06-10T22:13:03;10.32;;;6.03;;
26337;SDS011;14050;50.950;4.460;2023-06-10T22:18:07;11.68;;;6.78;;
26337;SDS011;14050;50.950;4.460;2023-06-10T22:23:08;13.68;;;6.57;;
26337;SDS011;14050;50.950;4.460;2023-06-10T22:28:08;9.10;;;5.72;;
26337;SDS011;14050;50.950;4.460;2023-06-10T22:33:08;16.08;;;7.35;;
26337;SDS011;14050;50.950;4.460;2023-06-10T22:38:09;14.07;;;6.93;;
26337;SDS011;14050;50.950;4.460;2023-06-10T22:43:09;13.75;;;7.30;;
26337;SDS011;14050;50.950;4.460;2023-06-10T22:48:10;11.63;;;6.50;;
26337;SDS011;14050;50.950;4.460;2023-06-10T22:53:10;13.38;;;6.72;;
26337;SDS011;14050;50.950;4.460;2023-06-10T22:58:10;12.18;;;7.20;;
26337;SDS011;14050;50.950;4.460;2023-06-10T23:03:10;13.85;;;7.25;;
26337;SDS011;14050;50.950;4.460;2023-06-10T23:08:11;13.38;;;7.07;;
26337;SDS011;14050;50.950;4.460;2023-06-10T23:13:11;11.37;;;7.27;;
26337;SDS011;14050;50.950;4.460;2023-06-10T23:18:11;8.13;;;6.87;;
26337;SDS011;14050;50.950;4.460;2023-06-10T23:23:16;14.70;;;7.20;;
26337;SDS011;14050;50.950;4.460;2023-06-10T23:28:16;8.90;;;6.95;;
26337;SDS011;14050;50.950;4.460;2023-06-10T23:33:17;14.32;;;6.75;;
26337;SDS011;14050;50.950;4.460;2023-06-10T23:38:18;11.77;;;7.55;;
26337;SDS011;14050;50.950;4.460;2023-06-10T23:43:18;9.33;;;7.17;;
26337;SDS011;14050;50.950;4.460;2023-06-10T23:48:18;10.95;;;6.90;;
26337;SDS011;14050;50.950;4.460;2023-06-10T23:53:18;16.95;;;8.40;;
26337;SDS011;14050;50.950;4.460;2023-06-10T23:58:19;15.57;;;8.07;;
